sensor_id;sensor_type;location;lat;lon;timestamp;temperature;humidity
15105;DHT22;7653;48.994;9.212;2023-11-22T00:00:51;6.10;90.20
15105;DHT22;7653;48.994;9.212;2023-11-22T00:03:17;6.00;87.60
15105;DHT22;7653;48.994;9.212;2023-11-22T00:05:42;5.90;85.40
15105;DHT22;7653;48.994;9.212;2023-11-22T00:08:08;5.90;85.40
15105;DHT22;7653;48.994;9.212;2023-11-22T00:10:34;5.80;82.10
15105;DHT22;7653;48.994;9.212;2023-11-22T00:13:00;5.80;81.50
15105;DHT22;7653;48.994;9.212;2023-11-22T00:15:25;5.80;82.40
15105;DHT22;7653;48.994;9.212;2023-11-22T00:17:51;5.90;83.20
15105;DHT22;7653;48.994;9.212;2023-11-22T00:20:18;5.80;83.60
15105;DHT22;7653;48.994;9.212;2023-11-22T00:22:44;5.80;83.70
15105;DHT22;7653;48.994;9.212;2023-11-22T00:25:10;5.70;84.20
15105;DHT22;7653;48.994;9.212;2023-11-22T00:27:38;5.70;84.50
15105;DHT22;7653;48.994;9.212;2023-11-22T00:30:05;5.60;85.10
15105;DHT22;7653;48.994;9.212;2023-11-22T00:32:30;5.60;86.10
15105;DHT22;7653;48.994;9.212;2023-11-22T00:34:56;5.60;87.00
15105;DHT22;7653;48.994;9.212;2023-11-22T00:37:23;5.60;84.60
15105;DHT22;7653;48.994;9.212;2023-11-22T00:39:48;5.60;84.00
15105;DHT22;7653;48.994;9.212;2023-11-22T00:42:14;5.60;84.30
15105;DHT22;7653;48.994;9.212;2023-11-22T00:44:40;5.60;83.50
15105;DHT22;7653;48.994;9.212;2023-11-22T00:47:05;5.40;78.20
15105;DHT22;7653;48.994;9.212;2023-11-22T00:49:31;5.40;75.80
15105;DHT22;7653;48.994;9.212;2023-11-22T00:51:58;5.20;71.70
15105;DHT22;7653;48.994;9.212;2023-11-22T00:54:24;5.10;72.40
15105;DHT22;7653;48.994;9.212;2023-11-22T00:56:51;5.10;70.90
15105;DHT22;7653;48.994;9.212;2023-11-22T00:59:17;5.10;69.80
15105;DHT22;7653;48.994;9.212;2023-11-22T01:01:42;5.20;68.20
15105;DHT22;7653;48.994;9.212;2023-11-22T01:04:08;5.10;65.10
15105;DHT22;7653;48.994;9.212;2023-11-22T01:06:34;5.20;65.70
15105;DHT22;7653;48.994;9.212;2023-11-22T01:09:00;5.10;63.00
15105;DHT22;7653;48.994;9.212;2023-11-22T01:11:25;5.20;63.90
15105;DHT22;7653;48.994;9.212;2023-11-22T01:13:51;5.10;64.50
15105;DHT22;7653;48.994;9.212;2023-11-22T01:16:17;5.20;65.80
15105;DHT22;7653;48.994;9.212;2023-11-22T01:18:42;5.10;62.50
15105;DHT22;7653;48.994;9.212;2023-11-22T01:21:08;5.20;63.80
15105;DHT22;7653;48.994;9.212;2023-11-22T01:23:34;5.10;63.10
15105;DHT22;7653;48.994;9.212;2023-11-22T01:26:00;5.20;64.80
15105;DHT22;7653;48.994;9.212;2023-11-22T01:28:29;5.10;61.90
15105;DHT22;7653;48.994;9.212;2023-11-22T01:30:59;5.10;62.10
15105;DHT22;7653;48.994;9.212;2023-11-22T01:33:25;5.00;61.30
15105;DHT22;7653;48.994;9.212;2023-11-22T01:35:52;5.10;60.20
15105;DHT22;7653;48.994;9.212;2023-11-22T01:38:18;5.20;61.20
15105;DHT22;7653;48.994;9.212;2023-11-22T01:40:44;5.10;60.90
15105;DHT22;7653;48.994;9.212;2023-11-22T01:43:16;5.00;57.00
15105;DHT22;7653;48.994;9.212;2023-11-22T01:45:42;5.00;59.50
15105;DHT22;7653;48.994;9.212;2023-11-22T01:48:10;5.10;58.90
15105;DHT22;7653;48.994;9.212;2023-11-22T01:50:40;5.10;57.60
15105;DHT22;7653;48.994;9.212;2023-11-22T01:53:10;5.10;56.80
15105;DHT22;7653;48.994;9.212;2023-11-22T01:55:36;5.20;56.50
15105;DHT22;7653;48.994;9.212;2023-11-22T01:58:02;5.20;57.30
15105;DHT22;7653;48.994;9.212;2023-11-22T02:00:32;5.20;57.80
15105;DHT22;7653;48.994;9.212;2023-11-22T02:03:00;4.90;56.60
15105;DHT22;7653;48.994;9.212;2023-11-22T02:05:26;4.90;57.40
15105;DHT22;7653;48.994;9.212;2023-11-22T02:07:51;4.90;56.70
15105;DHT22;7653;48.994;9.212;2023-11-22T02:10:17;5.00;58.80
15105;DHT22;7653;48.994;9.212;2023-11-22T02:12:43;4.80;59.00
15105;DHT22;7653;48.994;9.212;2023-11-22T02:15:09;4.90;57.80
15105;DHT22;7653;48.994;9.212;2023-11-22T02:17:35;4.90;56.60
15105;DHT22;7653;48.994;9.212;2023-11-22T02:20:01;4.90;56.60
15105;DHT22;7653;48.994;9.212;2023-11-22T02:22:31;4.90;55.10
15105;DHT22;7653;48.994;9.212;2023-11-22T02:24:57;4.70;54.00
15105;DHT22;7653;48.994;9.212;2023-11-22T02:27:22;4.80;56.40
15105;DHT22;7653;48.994;9.212;2023-11-22T02:29:48;4.70;54.90
15105;DHT22;7653;48.994;9.212;2023-11-22T02:32:15;4.70;56.40
15105;DHT22;7653;48.994;9.212;2023-11-22T02:34:41;4.80;56.50
15105;DHT22;7653;48.994;9.212;2023-11-22T02:37:06;4.80;58.10
15105;DHT22;7653;48.994;9.212;2023-11-22T02:39:57;4.90;58.80
15105;DHT22;7653;48.994;9.212;2023-11-22T02:42:25;4.70;59.20
15105;DHT22;7653;48.994;9.212;2023-11-22T02:44:51;4.80;59.20
15105;DHT22;7653;48.994;9.212;2023-11-22T02:47:17;4.80;57.80
15105;DHT22;7653;48.994;9.212;2023-11-22T02:49:42;4.90;56.60
15105;DHT22;7653;48.994;9.212;2023-11-22T02:52:08;4.80;56.50
15105;DHT22;7653;48.994;9.212;2023-11-22T02:54:34;4.70;56.40
15105;DHT22;7653;48.994;9.212;2023-11-22T02:56:59;4.60;56.30
15105;DHT22;7653;48.994;9.212;2023-11-22T02:59:25;4.60;56.30
15105;DHT22;7653;48.994;9.212;2023-11-22T03:01:51;4.70;56.40
15105;DHT22;7653;48.994;9.212;2023-11-22T03:04:17;4.50;56.20
15105;DHT22;7653;48.994;9.212;2023-11-22T03:06:43;4.50;56.20
15105;DHT22;7653;48.994;9.212;2023-11-22T03:09:08;4.70;56.40
15105;DHT22;7653;48.994;9.212;2023-11-22T03:11:34;4.70;56.40
15105;DHT22;7653;48.994;9.212;2023-11-22T03:14:00;4.50;56.50
15105;DHT22;7653;48.994;9.212;2023-11-22T03:16:29;4.60;57.70
15105;DHT22;7653;48.994;9.212;2023-11-22T03:18:54;4.60;56.40
15105;DHT22;7653;48.994;9.212;2023-11-22T03:21:20;4.60;59.60
15105;DHT22;7653;48.994;9.212;2023-11-22T03:23:46;4.60;58.30
15105;DHT22;7653;48.994;9.212;2023-11-22T03:26:12;4.70;58.80
15105;DHT22;7653;48.994;9.212;2023-11-22T03:28:37;4.60;58.30
15105;DHT22;7653;48.994;9.212;2023-11-22T03:31:03;4.80;59.40
15105;DHT22;7653;48.994;9.212;2023-11-22T03:33:30;4.70;56.40
15105;DHT22;7653;48.994;9.212;2023-11-22T03:35:56;4.50;57.50
15105;DHT22;7653;48.994;9.212;2023-11-22T03:38:23;4.60;59.20
15105;DHT22;7653;48.994;9.212;2023-11-22T03:40:49;4.60;56.30
15105;DHT22;7653;48.994;9.212;2023-11-22T03:43:14;4.50;57.90
15105;DHT22;7653;48.994;9.212;2023-11-22T03:45:40;4.50;56.20
15105;DHT22;7653;48.994;9.212;2023-11-22T03:48:06;4.50;56.50
15105;DHT22;7653;48.994;9.212;2023-11-22T03:50:31;4.50;56.20
15105;DHT22;7653;48.994;9.212;2023-11-22T03:52:58;4.40;56.20
15105;DHT22;7653;48.994;9.212;2023-11-22T03:55:24;4.40;56.20
15105;DHT22;7653;48.994;9.212;2023-11-22T03:57:49;4.20;55.20
15105;DHT22;7653;48.994;9.212;2023-11-22T04:00:15;4.30;54.60
15105;DHT22;7653;48.994;9.212;2023-11-22T04:02:42;4.30;53.30
15105;DHT22;7653;48.994;9.212;2023-11-22T04:05:08;4.20;55.50
15105;DHT22;7653;48.994;9.212;2023-11-22T04:07:33;4.10;55.10
15105;DHT22;7653;48.994;9.212;2023-11-22T04:09:59;4.20;55.00
15105;DHT22;7653;48.994;9.212;2023-11-22T04:12:24;4.30;54.40
15105;DHT22;7653;48.994;9.212;2023-11-22T04:14:50;4.20;55.10
15105;DHT22;7653;48.994;9.212;2023-11-22T04:17:17;4.20;55.20
15105;DHT22;7653;48.994;9.212;2023-11-22T04:19:43;4.40;55.40
15105;DHT22;7653;48.994;9.212;2023-11-22T04:22:09;4.30;55.60
15105;DHT22;7653;48.994;9.212;2023-11-22T04:24:36;4.30;56.10
15105;DHT22;7653;48.994;9.212;2023-11-22T04:27:01;4.20;56.80
15105;DHT22;7653;48.994;9.212;2023-11-22T04:29:28;4.20;57.90
15105;DHT22;7653;48.994;9.212;2023-11-22T04:31:53;4.30;57.80
15105;DHT22;7653;48.994;9.212;2023-11-22T04:34:19;4.10;55.90
15105;DHT22;7653;48.994;9.212;2023-11-22T04:36:45;4.10;57.10
15105;DHT22;7653;48.994;9.212;2023-11-22T04:39:12;4.20;56.00
15105;DHT22;7653;48.994;9.212;2023-11-22T04:41:38;4.30;56.20
15105;DHT22;7653;48.994;9.212;2023-11-22T04:44:04;4.30;57.40
15105;DHT22;7653;48.994;9.212;2023-11-22T04:46:30;4.30;56.10
15105;DHT22;7653;48.994;9.212;2023-11-22T04:48:56;4.20;56.60
15105;DHT22;7653;48.994;9.212;2023-11-22T04:51:23;4.30;57.90
15105;DHT22;7653;48.994;9.212;2023-11-22T04:53:49;4.30;58.10
15105;DHT22;7653;48.994;9.212;2023-11-22T04:56:15;4.20;57.90
15105;DHT22;7653;48.994;9.212;2023-11-22T04:58:42;4.30;56.10
15105;DHT22;7653;48.994;9.212;2023-11-22T05:01:07;4.30;57.10
15105;DHT22;7653;48.994;9.212;2023-11-22T05:03:36;4.40;57.70
15105;DHT22;7653;48.994;9.212;2023-11-22T05:06:03;4.30;58.10
15105;DHT22;7653;48.994;9.212;2023-11-22T05:08:29;4.30;57.10
15105;DHT22;7653;48.994;9.212;2023-11-22T05:10:55;4.20;57.60
15105;DHT22;7653;48.994;9.212;2023-11-22T05:13:21;4.10;57.10
15105;DHT22;7653;48.994;9.212;2023-11-22T05:15:47;4.10;57.60
15105;DHT22;7653;48.994;9.212;2023-11-22T05:18:12;4.10;58.00
15105;DHT22;7653;48.994;9.212;2023-11-22T05:20:38;4.10;59.10
15105;DHT22;7653;48.994;9.212;2023-11-22T05:23:04;4.10;60.40
15105;DHT22;7653;48.994;9.212;2023-11-22T05:25:30;4.10;56.90
15105;DHT22;7653;48.994;9.212;2023-11-22T05:27:55;4.00;55.80
15105;DHT22;7653;48.994;9.212;2023-11-22T05:30:21;4.00;57.60
15105;DHT22;7653;48.994;9.212;2023-11-22T05:32:48;4.00;55.80
15105;DHT22;7653;48.994;9.212;2023-11-22T05:35:14;4.00;55.80
15105;DHT22;7653;48.994;9.212;2023-11-22T05:37:40;4.10;54.60
15105;DHT22;7653;48.994;9.212;2023-11-22T05:40:06;4.00;53.70
15105;DHT22;7653;48.994;9.212;2023-11-22T05:42:35;4.00;54.20
15105;DHT22;7653;48.994;9.212;2023-11-22T05:45:01;4.10;55.50
15105;DHT22;7653;48.994;9.212;2023-11-22T05:47:27;4.10;53.60
15105;DHT22;7653;48.994;9.212;2023-11-22T05:49:52;4.20;52.10
15105;DHT22;7653;48.994;9.212;2023-11-22T05:52:18;4.20;51.50
15105;DHT22;7653;48.994;9.212;2023-11-22T05:54:45;4.10;51.20
15105;DHT22;7653;48.994;9.212;2023-11-22T05:57:10;4.00;52.90
15105;DHT22;7653;48.994;9.212;2023-11-22T05:59:36;4.00;53.10
15105;DHT22;7653;48.994;9.212;2023-11-22T06:02:02;4.10;53.10
15105;DHT22;7653;48.994;9.212;2023-11-22T06:04:27;4.00;52.70
15105;DHT22;7653;48.994;9.212;2023-11-22T06:06:53;4.00;52.10
15105;DHT22;7653;48.994;9.212;2023-11-22T06:09:18;3.80;50.00
15105;DHT22;7653;48.994;9.212;2023-11-22T06:11:44;3.70;50.80
15105;DHT22;7653;48.994;9.212;2023-11-22T06:14:10;3.80;51.00
15105;DHT22;7653;48.994;9.212;2023-11-22T06:16:35;3.70;50.90
15105;DHT22;7653;48.994;9.212;2023-11-22T06:19:01;3.80;51.70
15105;DHT22;7653;48.994;9.212;2023-11-22T06:21:27;3.90;46.90
15105;DHT22;7653;48.994;9.212;2023-11-22T06:23:53;3.70;46.30
15105;DHT22;7653;48.994;9.212;2023-11-22T06:26:22;3.60;46.10
15105;DHT22;7653;48.994;9.212;2023-11-22T06:28:48;3.60;46.10
15105;DHT22;7653;48.994;9.212;2023-11-22T06:31:15;3.70;46.10
15105;DHT22;7653;48.994;9.212;2023-11-22T06:33:40;3.50;43.30
15105;DHT22;7653;48.994;9.212;2023-11-22T06:36:06;3.50;45.90
15105;DHT22;7653;48.994;9.212;2023-11-22T06:38:32;3.50;45.40
15105;DHT22;7653;48.994;9.212;2023-11-22T06:40:58;3.50;44.60
15105;DHT22;7653;48.994;9.212;2023-11-22T06:43:23;3.30;45.70
15105;DHT22;7653;48.994;9.212;2023-11-22T06:45:49;3.40;45.70
15105;DHT22;7653;48.994;9.212;2023-11-22T06:48:16;3.40;45.80
15105;DHT22;7653;48.994;9.212;2023-11-22T06:50:42;3.30;45.70
15105;DHT22;7653;48.994;9.212;2023-11-22T06:53:07;3.30;45.70
15105;DHT22;7653;48.994;9.212;2023-11-22T06:55:33;3.40;45.90
15105;DHT22;7653;48.994;9.212;2023-11-22T06:57:58;3.40;44.40
15105;DHT22;7653;48.994;9.212;2023-11-22T07:00:24;3.30;45.80
15105;DHT22;7653;48.994;9.212;2023-11-22T07:02:52;3.40;45.80
15105;DHT22;7653;48.994;9.212;2023-11-22T07:05:18;3.30;45.70
15105;DHT22;7653;48.994;9.212;2023-11-22T07:07:44;3.30;45.70
15105;DHT22;7653;48.994;9.212;2023-11-22T07:10:10;3.30;45.70
15105;DHT22;7653;48.994;9.212;2023-11-22T07:12:37;3.40;45.80
15105;DHT22;7653;48.994;9.212;2023-11-22T07:15:03;3.10;45.60
15105;DHT22;7653;48.994;9.212;2023-11-22T07:17:31;3.10;45.60
15105;DHT22;7653;48.994;9.212;2023-11-22T07:19:58;3.10;45.60
15105;DHT22;7653;48.994;9.212;2023-11-22T07:22:26;3.10;46.10
15105;DHT22;7653;48.994;9.212;2023-11-22T07:24:52;3.10;45.70
15105;DHT22;7653;48.994;9.212;2023-11-22T07:27:19;3.00;46.20
15105;DHT22;7653;48.994;9.212;2023-11-22T07:29:45;3.10;45.60
15105;DHT22;7653;48.994;9.212;2023-11-22T07:32:12;3.10;45.60
15105;DHT22;7653;48.994;9.212;2023-11-22T07:34:38;3.10;45.60
15105;DHT22;7653;48.994;9.212;2023-11-22T07:37:08;2.90;44.50
15105;DHT22;7653;48.994;9.212;2023-11-22T07:39:34;3.00;44.60
15105;DHT22;7653;48.994;9.212;2023-11-22T07:42:01;3.00;45.50
15105;DHT22;7653;48.994;9.212;2023-11-22T07:44:27;2.90;45.40
15105;DHT22;7653;48.994;9.212;2023-11-22T07:46:53;2.90;44.80
15105;DHT22;7653;48.994;9.212;2023-11-22T07:49:19;2.90;45.50
15105;DHT22;7653;48.994;9.212;2023-11-22T07:51:46;2.90;45.30
15105;DHT22;7653;48.994;9.212;2023-11-22T07:54:12;3.00;43.70
15105;DHT22;7653;48.994;9.212;2023-11-22T07:56:41;2.90;43.90
15105;DHT22;7653;48.994;9.212;2023-11-22T07:59:12;3.00;45.50
15105;DHT22;7653;48.994;9.212;2023-11-22T08:01:38;3.00;43.30
15105;DHT22;7653;48.994;9.212;2023-11-22T08:04:04;3.00;43.20
15105;DHT22;7653;48.994;9.212;2023-11-22T08:06:31;2.80;42.00
15105;DHT22;7653;48.994;9.212;2023-11-22T08:08:58;2.80;42.70
15105;DHT22;7653;48.994;9.212;2023-11-22T08:11:29;2.70;42.70
15105;DHT22;7653;48.994;9.212;2023-11-22T08:13:55;2.70;43.70
15105;DHT22;7653;48.994;9.212;2023-11-22T08:16:23;2.60;45.10
15105;DHT22;7653;48.994;9.212;2023-11-22T08:18:49;2.70;44.60
15105;DHT22;7653;48.994;9.212;2023-11-22T08:21:15;2.70;43.20
15105;DHT22;7653;48.994;9.212;2023-11-22T08:23:40;2.70;42.60
15105;DHT22;7653;48.994;9.212;2023-11-22T08:26:06;2.50;42.70
15105;DHT22;7653;48.994;9.212;2023-11-22T08:28:34;2.60;43.70
15105;DHT22;7653;48.994;9.212;2023-11-22T08:31:00;2.60;44.60
15105;DHT22;7653;48.994;9.212;2023-11-22T08:33:29;2.80;43.80
15105;DHT22;7653;48.994;9.212;2023-11-22T08:35:55;2.80;45.30
15105;DHT22;7653;48.994;9.212;2023-11-22T08:38:24;2.80;43.20
15105;DHT22;7653;48.994;9.212;2023-11-22T08:40:50;2.80;42.50
15105;DHT22;7653;48.994;9.212;2023-11-22T08:43:16;2.90;43.10
15105;DHT22;7653;48.994;9.212;2023-11-22T08:45:41;2.90;43.60
15105;DHT22;7653;48.994;9.212;2023-11-22T08:48:09;2.70;42.50
15105;DHT22;7653;48.994;9.212;2023-11-22T08:50:35;2.70;44.50
15105;DHT22;7653;48.994;9.212;2023-11-22T08:53:00;2.80;45.40
15105;DHT22;7653;48.994;9.212;2023-11-22T08:55:26;2.70;45.90
15105;DHT22;7653;48.994;9.212;2023-11-22T08:57:52;2.90;45.40
15105;DHT22;7653;48.994;9.212;2023-11-22T09:00:17;2.80;44.10
15105;DHT22;7653;48.994;9.212;2023-11-22T09:02:51;2.90;43.80
15105;DHT22;7653;48.994;9.212;2023-11-22T09:05:17;2.80;44.20
15105;DHT22;7653;48.994;9.212;2023-11-22T09:07:44;2.90;44.40
15105;DHT22;7653;48.994;9.212;2023-11-22T09:10:10;3.10;44.00
15105;DHT22;7653;48.994;9.212;2023-11-22T09:12:38;2.90;40.90
15105;DHT22;7653;48.994;9.212;2023-11-22T09:15:11;3.00;41.70
15105;DHT22;7653;48.994;9.212;2023-11-22T09:17:39;3.00;42.50
15105;DHT22;7653;48.994;9.212;2023-11-22T09:20:12;3.10;42.30
15105;DHT22;7653;48.994;9.212;2023-11-22T09:22:45;3.40;41.80
15105;DHT22;7653;48.994;9.212;2023-11-22T09:25:14;3.70;38.90
15105;DHT22;7653;48.994;9.212;2023-11-22T09:27:42;3.90;39.20
15105;DHT22;7653;48.994;9.212;2023-11-22T09:30:08;3.90;41.20
15105;DHT22;7653;48.994;9.212;2023-11-22T09:32:44;3.90;40.10
15105;DHT22;7653;48.994;9.212;2023-11-22T09:35:11;4.00;37.40
15105;DHT22;7653;48.994;9.212;2023-11-22T09:37:39;3.90;38.50
15105;DHT22;7653;48.994;9.212;2023-11-22T09:40:08;3.80;39.20
15105;DHT22;7653;48.994;9.212;2023-11-22T09:42:35;4.00;40.30
15105;DHT22;7653;48.994;9.212;2023-11-22T09:45:01;4.30;36.80
15105;DHT22;7653;48.994;9.212;2023-11-22T09:47:29;4.20;36.80
15105;DHT22;7653;48.994;9.212;2023-11-22T09:49:57;3.90;36.50
15105;DHT22;7653;48.994;9.212;2023-11-22T09:52:32;4.00;36.80
15105;DHT22;7653;48.994;9.212;2023-11-22T09:55:01;4.00;38.00
15105;DHT22;7653;48.994;9.212;2023-11-22T09:57:29;4.00;36.90
15105;DHT22;7653;48.994;9.212;2023-11-22T09:59:57;3.60;36.20
15105;DHT22;7653;48.994;9.212;2023-11-22T10:02:24;3.40;37.80
15105;DHT22;7653;48.994;9.212;2023-11-22T10:04:53;3.40;37.70
15105;DHT22;7653;48.994;9.212;2023-11-22T10:07:19;3.50;38.40
15105;DHT22;7653;48.994;9.212;2023-11-22T10:09:45;3.50;38.50
15105;DHT22;7653;48.994;9.212;2023-11-22T10:12:12;3.50;38.20
15105;DHT22;7653;48.994;9.212;2023-11-22T10:14:38;3.70;38.60
15105;DHT22;7653;48.994;9.212;2023-11-22T10:17:04;3.90;38.30
15105;DHT22;7653;48.994;9.212;2023-11-22T10:19:31;4.10;36.70
15105;DHT22;7653;48.994;9.212;2023-11-22T10:22:07;4.00;33.70
15105;DHT22;7653;48.994;9.212;2023-11-22T10:24:33;3.90;36.50
15105;DHT22;7653;48.994;9.212;2023-11-22T10:27:00;3.90;36.50
15105;DHT22;7653;48.994;9.212;2023-11-22T10:29:26;3.90;36.50
15105;DHT22;7653;48.994;9.212;2023-11-22T10:31:52;3.90;36.50
15105;DHT22;7653;48.994;9.212;2023-11-22T10:34:23;3.90;36.50
15105;DHT22;7653;48.994;9.212;2023-11-22T10:36:49;3.90;36.50
15105;DHT22;7653;48.994;9.212;2023-11-22T10:39:20;3.80;36.40
15105;DHT22;7653;48.994;9.212;2023-11-22T10:41:46;3.80;37.20
15105;DHT22;7653;48.994;9.212;2023-11-22T10:44:11;3.90;36.50
15105;DHT22;7653;48.994;9.212;2023-11-22T10:46:39;4.10;36.70
15105;DHT22;7653;48.994;9.212;2023-11-22T10:49:05;4.00;36.60
15105;DHT22;7653;48.994;9.212;2023-11-22T10:51:32;4.10;36.70
15105;DHT22;7653;48.994;9.212;2023-11-22T10:54:00;3.90;36.50
15105;DHT22;7653;48.994;9.212;2023-11-22T10:56:40;4.20;36.80
15105;DHT22;7653;48.994;9.212;2023-11-22T10:59:13;4.00;36.40
15105;DHT22;7653;48.994;9.212;2023-11-22T11:01:44;3.90;36.50
15105;DHT22;7653;48.994;9.212;2023-11-22T11:04:19;4.00;37.60
15105;DHT22;7653;48.994;9.212;2023-11-22T11:06:51;4.10;38.10
15105;DHT22;7653;48.994;9.212;2023-11-22T11:09:19;4.20;36.10
15105;DHT22;7653;48.994;9.212;2023-11-22T11:11:46;4.20;36.80
15105;DHT22;7653;48.994;9.212;2023-11-22T11:14:13;4.10;36.20
15105;DHT22;7653;48.994;9.212;2023-11-22T11:16:41;4.00;36.60
15105;DHT22;7653;48.994;9.212;2023-11-22T11:19:15;4.20;36.70
15105;DHT22;7653;48.994;9.212;2023-11-22T11:21:43;4.30;35.70
15105;DHT22;7653;48.994;9.212;2023-11-22T11:24:08;4.20;34.80
15105;DHT22;7653;48.994;9.212;2023-11-22T11:26:34;4.20;36.80
15105;DHT22;7653;48.994;9.212;2023-11-22T11:29:00;4.10;36.70
15105;DHT22;7653;48.994;9.212;2023-11-22T11:31:31;3.90;37.40
15105;DHT22;7653;48.994;9.212;2023-11-22T11:33:59;4.10;36.70
15105;DHT22;7653;48.994;9.212;2023-11-22T11:36:28;4.30;36.20
15105;DHT22;7653;48.994;9.212;2023-11-22T11:38:57;4.30;35.50
15105;DHT22;7653;48.994;9.212;2023-11-22T11:41:26;4.10;36.70
15105;DHT22;7653;48.994;9.212;2023-11-22T11:43:53;4.10;36.20
15105;DHT22;7653;48.994;9.212;2023-11-22T11:46:21;4.10;36.70
15105;DHT22;7653;48.994;9.212;2023-11-22T11:48:52;4.20;36.80
15105;DHT22;7653;48.994;9.212;2023-11-22T11:51:23;4.10;36.00
15105;DHT22;7653;48.994;9.212;2023-11-22T11:53:49;4.20;36.80
15105;DHT22;7653;48.994;9.212;2023-11-22T11:56:15;4.20;36.40
15105;DHT22;7653;48.994;9.212;2023-11-22T11:58:45;4.20;35.40
15105;DHT22;7653;48.994;9.212;2023-11-22T12:01:12;3.90;36.50
15105;DHT22;7653;48.994;9.212;2023-11-22T12:03:38;4.10;37.40
15105;DHT22;7653;48.994;9.212;2023-11-22T12:06:06;4.20;34.80
15105;DHT22;7653;48.994;9.212;2023-11-22T12:08:31;4.10;36.70
15105;DHT22;7653;48.994;9.212;2023-11-22T12:11:05;4.00;36.60
15105;DHT22;7653;48.994;9.212;2023-11-22T12:13:34;3.90;35.20
15105;DHT22;7653;48.994;9.212;2023-11-22T12:16:00;4.00;36.60
15105;DHT22;7653;48.994;9.212;2023-11-22T12:18:28;4.10;36.50
15105;DHT22;7653;48.994;9.212;2023-11-22T12:20:55;4.20;36.80
15105;DHT22;7653;48.994;9.212;2023-11-22T12:23:22;4.30;36.20
15105;DHT22;7653;48.994;9.212;2023-11-22T12:25:48;4.30;35.20
15105;DHT22;7653;48.994;9.212;2023-11-22T12:28:18;4.10;34.20
15105;DHT22;7653;48.994;9.212;2023-11-22T12:30:44;3.90;35.60
15105;DHT22;7653;48.994;9.212;2023-11-22T12:33:11;4.10;35.60
15105;DHT22;7653;48.994;9.212;2023-11-22T12:35:42;3.80;36.40
15105;DHT22;7653;48.994;9.212;2023-11-22T12:38:09;4.00;36.40
15105;DHT22;7653;48.994;9.212;2023-11-22T12:40:36;4.00;35.80
15105;DHT22;7653;48.994;9.212;2023-11-22T12:43:03;4.20;36.80
15105;DHT22;7653;48.994;9.212;2023-11-22T12:45:32;4.30;36.90
15105;DHT22;7653;48.994;9.212;2023-11-22T12:48:22;4.20;35.70
15105;DHT22;7653;48.994;9.212;2023-11-22T12:50:54;4.20;35.40
15105;DHT22;7653;48.994;9.212;2023-11-22T12:53:20;4.10;34.30
15105;DHT22;7653;48.994;9.212;2023-11-22T12:55:50;3.80;34.80
15105;DHT22;7653;48.994;9.212;2023-11-22T12:58:20;3.80;36.40
15105;DHT22;7653;48.994;9.212;2023-11-22T13:00:49;4.00;36.00
15105;DHT22;7653;48.994;9.212;2023-11-22T13:03:15;4.00;35.10
15105;DHT22;7653;48.994;9.212;2023-11-22T13:05:42;4.00;34.70
15105;DHT22;7653;48.994;9.212;2023-11-22T13:08:08;4.20;35.20
15105;DHT22;7653;48.994;9.212;2023-11-22T13:10:48;4.30;33.90
15105;DHT22;7653;48.994;9.212;2023-11-22T13:13:22;3.80;35.50
15105;DHT22;7653;48.994;9.212;2023-11-22T13:15:49;3.80;36.10
15105;DHT22;7653;48.994;9.212;2023-11-22T13:18:15;3.80;36.40
15105;DHT22;7653;48.994;9.212;2023-11-22T13:20:41;4.00;36.60
15105;DHT22;7653;48.994;9.212;2023-11-22T13:23:08;4.20;34.30
15105;DHT22;7653;48.994;9.212;2023-11-22T13:25:34;4.00;35.10
15105;DHT22;7653;48.994;9.212;2023-11-22T13:28:00;3.80;35.50
15105;DHT22;7653;48.994;9.212;2023-11-22T13:30:26;3.70;36.10
15105;DHT22;7653;48.994;9.212;2023-11-22T13:32:52;3.80;35.00
15105;DHT22;7653;48.994;9.212;2023-11-22T13:35:22;3.70;34.70
15105;DHT22;7653;48.994;9.212;2023-11-22T13:37:48;3.70;34.50
15105;DHT22;7653;48.994;9.212;2023-11-22T13:40:17;3.80;35.30
15105;DHT22;7653;48.994;9.212;2023-11-22T13:45:13;3.80;35.10
15105;DHT22;7653;48.994;9.212;2023-11-22T13:47:42;3.90;34.70
15105;DHT22;7653;48.994;9.212;2023-11-22T13:50:09;4.00;32.20
15105;DHT22;7653;48.994;9.212;2023-11-22T13:52:34;3.90;34.00
15105;DHT22;7653;48.994;9.212;2023-11-22T13:55:00;4.00;34.90
15105;DHT22;7653;48.994;9.212;2023-11-22T13:57:27;4.00;34.20
15105;DHT22;7653;48.994;9.212;2023-11-22T13:59:52;4.20;33.50
15105;DHT22;7653;48.994;9.212;2023-11-22T14:02:22;4.30;32.10
15105;DHT22;7653;48.994;9.212;2023-11-22T14:04:48;4.30;33.60
15105;DHT22;7653;48.994;9.212;2023-11-22T14:07:13;4.30;31.80
15105;DHT22;7653;48.994;9.212;2023-11-22T14:09:39;4.40;32.90
15105;DHT22;7653;48.994;9.212;2023-11-22T14:12:05;4.40;33.00
15105;DHT22;7653;48.994;9.212;2023-11-22T14:14:31;4.40;32.00
15105;DHT22;7653;48.994;9.212;2023-11-22T14:16:57;4.20;31.80
15105;DHT22;7653;48.994;9.212;2023-11-22T14:19:22;4.30;33.50
15105;DHT22;7653;48.994;9.212;2023-11-22T14:21:48;4.20;31.10
15105;DHT22;7653;48.994;9.212;2023-11-22T14:24:14;4.00;31.60
15105;DHT22;7653;48.994;9.212;2023-11-22T14:26:40;4.10;32.80
15105;DHT22;7653;48.994;9.212;2023-11-22T14:29:06;4.10;31.70
15105;DHT22;7653;48.994;9.212;2023-11-22T14:31:31;4.10;31.90
15105;DHT22;7653;48.994;9.212;2023-11-22T14:33:57;4.20;32.50
15105;DHT22;7653;48.994;9.212;2023-11-22T14:36:24;4.20;32.60
15105;DHT22;7653;48.994;9.212;2023-11-22T14:38:50;4.10;31.70
15105;DHT22;7653;48.994;9.212;2023-11-22T14:41:20;4.10;32.50
15105;DHT22;7653;48.994;9.212;2023-11-22T14:43:46;4.30;33.90
15105;DHT22;7653;48.994;9.212;2023-11-22T14:46:12;4.30;34.20
15105;DHT22;7653;48.994;9.212;2023-11-22T14:48:38;4.20;33.50
15105;DHT22;7653;48.994;9.212;2023-11-22T14:51:04;4.30;33.90
15105;DHT22;7653;48.994;9.212;2023-11-22T14:53:30;4.20;35.00
15105;DHT22;7653;48.994;9.212;2023-11-22T14:55:56;4.20;34.70
15105;DHT22;7653;48.994;9.212;2023-11-22T14:58:22;4.20;35.00
15105;DHT22;7653;48.994;9.212;2023-11-22T15:00:48;4.20;35.80
15105;DHT22;7653;48.994;9.212;2023-11-22T15:03:14;4.10;36.30
15105;DHT22;7653;48.994;9.212;2023-11-22T15:05:40;4.10;35.60
15105;DHT22;7653;48.994;9.212;2023-11-22T15:08:07;4.30;36.90
15105;DHT22;7653;48.994;9.212;2023-11-22T15:10:33;4.20;35.10
15105;DHT22;7653;48.994;9.212;2023-11-22T15:12:59;4.00;33.80
15105;DHT22;7653;48.994;9.212;2023-11-22T15:15:25;4.00;34.10
15105;DHT22;7653;48.994;9.212;2023-11-22T15:17:51;4.00;36.10
15105;DHT22;7653;48.994;9.212;2023-11-22T15:20:16;3.90;36.10
15105;DHT22;7653;48.994;9.212;2023-11-22T15:22:42;3.90;36.50
15105;DHT22;7653;48.994;9.212;2023-11-22T15:25:08;4.00;36.60
15105;DHT22;7653;48.994;9.212;2023-11-22T15:27:35;4.10;36.60
15105;DHT22;7653;48.994;9.212;2023-11-22T15:30:01;4.10;36.70
15105;DHT22;7653;48.994;9.212;2023-11-22T15:32:28;4.10;36.80
15105;DHT22;7653;48.994;9.212;2023-11-22T15:34:54;4.00;34.30
15105;DHT22;7653;48.994;9.212;2023-11-22T15:37:20;3.90;34.30
15105;DHT22;7653;48.994;9.212;2023-11-22T15:39:45;4.00;35.20
15105;DHT22;7653;48.994;9.212;2023-11-22T15:42:11;3.70;33.30
15105;DHT22;7653;48.994;9.212;2023-11-22T15:44:37;3.80;35.90
15105;DHT22;7653;48.994;9.212;2023-11-22T15:47:03;3.90;37.10
15105;DHT22;7653;48.994;9.212;2023-11-22T15:49:36;3.90;36.50
15105;DHT22;7653;48.994;9.212;2023-11-22T15:52:02;3.80;35.10
15105;DHT22;7653;48.994;9.212;2023-11-22T15:54:28;3.80;34.60
15105;DHT22;7653;48.994;9.212;2023-11-22T15:56:53;3.80;35.00
15105;DHT22;7653;48.994;9.212;2023-11-22T15:59:19;3.70;36.30
15105;DHT22;7653;48.994;9.212;2023-11-22T16:01:44;3.70;36.40